createdAt,value
2017-09-24T00:00:44.116Z,18.35
2017-09-24T00:03:11.822Z,16.37
2017-09-24T00:05:39.392Z,17.70
2017-09-24T00:08:06.965Z,18.45
2017-09-24T00:10:34.538Z,25.00
2017-09-24T00:13:02.206Z,18.65
2017-09-24T00:15:29.799Z,18.58
2017-09-24T00:17:58.232Z,19.90
2017-09-24T00:20:26.687Z,17.05
2017-09-24T00:22:54.544Z,20.20
2017-09-24T00:25:22.126Z,18.62
2017-09-24T00:27:49.805Z,20.12
2017-09-24T00:30:17.405Z,20.52
2017-09-24T00:32:45.799Z,20.37
2017-09-24T00:35:13.387Z,22.25
2017-09-24T00:37:40.971Z,18.85
2017-09-24T00:40:08.572Z,18.37
2017-09-24T00:42:36.163Z,21.48
2017-09-24T00:45:04.529Z,22.95
2017-09-24T00:47:32.157Z,20.77
2017-09-24T00:50:00.511Z,20.62
2017-09-24T00:52:28.136Z,22.52
2017-09-24T00:54:55.889Z,21.17
2017-09-24T00:57:23.522Z,21.25
2017-09-24T00:59:51.865Z,18.83
2017-09-24T01:02:19.449Z,24.70
2017-09-24T01:04:47.791Z,19.10
2017-09-24T01:07:16.809Z,20.42
2017-09-24T01:09:45.149Z,20.90
2017-09-24T01:12:12.742Z,19.95
2017-09-24T01:14:40.318Z,19.40
2017-09-24T01:17:08.734Z,19.45
2017-09-24T01:19:36.329Z,20.85
2017-09-24T01:22:04.007Z,21.00
2017-09-24T01:24:32.349Z,19.65
2017-09-24T01:26:59.949Z,18.35
2017-09-24T01:29:28.443Z,19.90
2017-09-24T01:31:56.003Z,19.33
2017-09-24T01:34:23.855Z,20.67
2017-09-24T01:36:52.254Z,19.40
2017-09-24T01:39:19.866Z,19.92
2017-09-24T01:41:47.438Z,17.23
2017-09-24T01:44:15.013Z,23.27
2017-09-24T01:46:43.388Z,16.35
2017-09-24T01:49:11.743Z,20.75
2017-09-24T01:51:39.324Z,17.33
2017-09-24T01:54:07.663Z,20.23
2017-09-24T01:56:35.630Z,18.95
2017-09-24T01:59:03.283Z,18.48
2017-09-24T02:01:30.851Z,17.65
2017-09-24T02:03:58.439Z,22.30
2017-09-24T02:06:26.008Z,20.70
2017-09-24T02:08:54.709Z,18.35
2017-09-24T02:11:22.289Z,19.17
2017-09-24T02:13:49.870Z,18.80
2017-09-24T02:16:17.445Z,21.37
2017-09-24T02:18:45.527Z,18.92
2017-09-24T02:21:13.136Z,21.17
2017-09-24T02:23:40.785Z,22.25
2017-09-24T02:26:08.400Z,18.37
2017-09-24T02:28:35.982Z,19.70
2017-09-24T02:31:04.304Z,18.35
2017-09-24T02:33:32.422Z,17.60
2017-09-24T02:36:00.032Z,21.20
2017-09-24T02:38:27.646Z,17.30
2017-09-24T02:40:56.011Z,19.23
2017-09-24T02:43:23.596Z,20.92
2017-09-24T02:45:51.182Z,17.90
2017-09-24T02:48:18.966Z,21.02
2017-09-24T02:50:47.781Z,19.50
2017-09-24T02:53:15.358Z,18.60
2017-09-24T02:55:43.698Z,19.20
2017-09-24T02:58:11.276Z,22.50
2017-09-24T03:00:38.863Z,21.60
2017-09-24T03:03:07.200Z,19.92
2017-09-24T03:05:35.164Z,18.05
2017-09-24T03:08:02.730Z,19.23
2017-09-24T03:10:30.290Z,17.52
2017-09-24T03:12:57.876Z,20.15
2017-09-24T03:15:26.241Z,20.25
2017-09-24T03:17:53.827Z,19.35
2017-09-24T03:20:21.411Z,20.60
2017-09-24T03:22:49.765Z,23.80
2017-09-24T03:25:17.335Z,21.60
2017-09-24T03:27:44.920Z,21.17
2017-09-24T03:30:12.507Z,21.35
2017-09-24T03:32:40.387Z,22.73
2017-09-24T03:35:07.963Z,19.62
2017-09-24T03:37:35.542Z,25.17
2017-09-24T03:40:03.125Z,20.75
2017-09-24T03:42:30.694Z,22.15
2017-09-24T03:44:58.280Z,26.17
2017-09-24T03:47:25.855Z,21.87
2017-09-24T03:49:54.948Z,22.95
2017-09-24T03:52:22.533Z,24.10
2017-09-24T03:54:50.924Z,24.23
2017-09-24T03:57:19.251Z,22.75
2017-09-24T03:59:47.111Z,21.45
2017-09-24T04:02:14.673Z,23.25
2017-09-24T04:04:42.234Z,22.58
2017-09-24T04:07:09.817Z,27.00
2017-09-24T04:09:37.392Z,21.75
2017-09-24T04:12:05.733Z,23.10
2017-09-24T04:14:33.318Z,21.80
2017-09-24T04:17:00.895Z,24.10
2017-09-24T04:19:29.238Z,23.60
2017-09-24T04:21:56.815Z,23.23
2017-09-24T04:24:25.170Z,22.95
2017-09-24T04:26:53.938Z,20.08
2017-09-24T04:29:21.505Z,27.65
2017-09-24T04:31:49.073Z,21.52
2017-09-24T04:34:17.415Z,22.58
2017-09-24T04:36:44.976Z,19.92
2017-09-24T04:39:12.555Z,24.30
2017-09-24T04:41:40.134Z,19.55
2017-09-24T04:44:07.987Z,22.90
2017-09-24T04:46:35.561Z,20.27
2017-09-24T04:49:03.135Z,24.12
2017-09-24T04:51:31.489Z,20.23
2017-09-24T04:53:59.058Z,20.70
2017-09-24T04:56:26.650Z,19.85
2017-09-24T04:58:54.335Z,20.45
2017-09-24T05:01:21.918Z,25.30
2017-09-24T05:03:49.490Z,21.00
2017-09-24T05:06:17.347Z,23.20
2017-09-24T05:08:44.924Z,21.17
2017-09-24T05:11:12.506Z,23.12
2017-09-24T05:13:40.845Z,18.85
2017-09-24T05:16:08.405Z,21.60
2017-09-24T05:18:35.991Z,20.37
2017-09-24T05:21:03.566Z,20.98
2017-09-24T05:23:31.929Z,19.27
2017-09-24T05:26:00.263Z,19.12
2017-09-24T05:28:28.131Z,20.50
2017-09-24T05:30:55.706Z,20.77
2017-09-24T05:33:24.037Z,20.80
2017-09-24T05:35:51.617Z,22.15
2017-09-24T05:38:19.176Z,21.45
2017-09-24T05:40:46.776Z,23.87
2017-09-24T05:43:14.366Z,21.60
2017-09-24T05:45:41.954Z,23.30
2017-09-24T05:48:09.519Z,19.37
2017-09-24T05:50:37.383Z,19.45
2017-09-24T05:53:04.947Z,19.25
2017-09-24T05:55:32.523Z,22.02
2017-09-24T05:58:00.147Z,19.85
2017-09-24T06:00:27.806Z,24.90
2017-09-24T06:02:55.580Z,23.60
2017-09-24T06:05:23.194Z,20.90
2017-09-24T06:07:51.550Z,22.20
2017-09-24T06:10:19.135Z,20.35
2017-09-24T06:12:47.738Z,25.05
2017-09-24T06:15:15.331Z,21.37
2017-09-24T06:17:43.674Z,23.23
2017-09-24T06:20:11.267Z,26.75
2017-09-24T06:22:38.836Z,26.98
2017-09-24T06:25:06.428Z,27.58
2017-09-24T06:27:34.763Z,30.33
2017-09-24T06:30:02.347Z,26.55
2017-09-24T06:32:29.928Z,28.25
2017-09-24T06:34:58.345Z,29.52
2017-09-24T06:37:25.917Z,33.97
2017-09-24T06:39:53.871Z,26.92
2017-09-24T06:42:21.455Z,24.30
2017-09-24T06:44:49.036Z,35.45
2017-09-24T06:47:16.615Z,28.83
2017-09-24T06:49:44.972Z,36.92
2017-09-24T06:52:12.567Z,35.97
2017-09-24T06:54:40.153Z,28.50
2017-09-24T06:57:07.754Z,30.52
2017-09-24T06:59:35.341Z,36.40
2017-09-24T07:02:03.205Z,38.40
2017-09-24T07:04:30.797Z,39.75
2017-09-24T07:06:58.391Z,36.40
2017-09-24T07:09:25.985Z,36.13
2017-09-24T07:11:53.578Z,34.90
2017-09-24T07:14:21.181Z,39.22
2017-09-24T07:16:48.755Z,38.83
2017-09-24T07:19:17.096Z,41.17
2017-09-24T07:21:44.690Z,40.67
2017-09-24T07:24:13.310Z,38.20
2017-09-24T07:26:40.891Z,44.85
2017-09-24T07:29:09.240Z,39.65
2017-09-24T07:31:36.825Z,41.75
2017-09-24T07:34:04.400Z,41.90
2017-09-24T07:36:32.046Z,44.78
2017-09-24T07:38:59.646Z,40.28
2017-09-24T07:41:28.032Z,44.85
2017-09-24T07:43:55.665Z,40.35
2017-09-24T07:46:23.563Z,44.25
2017-09-24T07:48:51.183Z,43.95
2017-09-24T07:51:18.779Z,43.50
2017-09-24T07:53:46.385Z,40.47
2017-09-24T07:56:14.747Z,44.58
2017-09-24T07:58:42.371Z,44.28
2017-09-24T08:01:09.970Z,42.38
2017-09-24T08:03:37.587Z,41.90
2017-09-24T08:06:05.242Z,42.30
2017-09-24T08:08:33.142Z,42.17
2017-09-24T08:11:00.726Z,39.65
2017-09-24T08:13:28.311Z,38.58
2017-09-24T08:15:55.923Z,33.20
2017-09-24T08:18:23.501Z,37.03
2017-09-24T08:20:51.852Z,30.48
2017-09-24T08:23:19.585Z,34.30
2017-09-24T08:25:47.197Z,32.63
2017-09-24T08:28:15.548Z,32.53
2017-09-24T08:30:43.589Z,30.15
2017-09-24T08:33:11.268Z,30.73
2017-09-24T08:35:39.626Z,28.03
2017-09-24T08:38:07.231Z,26.20
2017-09-24T08:40:34.828Z,24.70
2017-09-24T08:43:02.405Z,25.07
2017-09-24T08:45:30.009Z,28.95
2017-09-24T08:47:58.505Z,29.37
2017-09-24T08:50:26.078Z,30.67
2017-09-24T08:52:53.676Z,29.33
2017-09-24T08:55:21.272Z,33.17
2017-09-24T08:57:49.651Z,25.33
2017-09-24T09:00:17.239Z,28.37
2017-09-24T09:02:45.108Z,27.03
2017-09-24T09:05:12.723Z,25.40
2017-09-24T09:07:41.059Z,24.50
2017-09-24T09:10:08.661Z,21.33
2017-09-24T09:12:36.238Z,26.27
2017-09-24T09:15:03.830Z,18.83
2017-09-24T09:17:31.405Z,20.40
2017-09-24T09:19:59.000Z,19.63
2017-09-24T09:22:26.567Z,23.63
2017-09-24T09:24:54.177Z,18.43
2017-09-24T09:27:21.762Z,20.93
2017-09-24T09:29:49.716Z,18.87
2017-09-24T09:32:17.338Z,17.13
2017-09-24T09:34:57.146Z,14.97
2017-09-24T09:37:25.482Z,14.10
2017-09-24T09:39:53.055Z,13.53
2017-09-24T09:42:20.660Z,11.37
2017-09-24T09:44:51.232Z,11.23
2017-09-24T09:47:26.748Z,15.33
2017-09-24T09:49:54.331Z,15.90
2017-09-24T09:52:21.916Z,13.27
2017-09-24T09:54:49.533Z,16.60
2017-09-24T09:57:17.132Z,14.50
2017-09-24T09:59:44.708Z,16.50
2017-09-24T10:02:13.372Z,14.07
2017-09-24T10:04:40.949Z,12.13
2017-09-24T10:07:21.603Z,10.80
2017-09-24T10:10:00.916Z,10.70
2017-09-24T10:12:29.545Z,12.43
2017-09-24T10:14:57.917Z,11.70
2017-09-24T10:17:26.262Z,13.27
2017-09-24T10:19:53.863Z,12.30
2017-09-24T10:22:21.472Z,15.00
2017-09-24T10:24:49.084Z,17.53
2017-09-24T10:27:16.652Z,15.80
2017-09-24T10:29:56.226Z,13.37
2017-09-24T10:32:23.832Z,13.53
2017-09-24T10:34:52.196Z,14.97
2017-09-24T10:37:19.783Z,11.77
2017-09-24T10:39:47.377Z,14.03
2017-09-24T10:42:14.978Z,11.90
2017-09-24T10:44:43.615Z,13.27
2017-09-24T10:47:11.194Z,12.70
2017-09-24T10:49:38.783Z,11.70
2017-09-24T10:52:07.135Z,13.50
2017-09-24T10:54:34.735Z,14.80
2017-09-24T10:57:03.085Z,13.03
2017-09-24T10:59:30.670Z,13.00
2017-09-24T11:01:58.259Z,11.47
2017-09-24T11:04:25.837Z,12.70
2017-09-24T11:06:53.416Z,10.90
2017-09-24T11:09:20.991Z,12.77
2017-09-24T11:11:49.690Z,13.10
2017-09-24T11:14:18.037Z,12.10
2017-09-24T11:16:45.640Z,12.40
2017-09-24T11:19:13.229Z,11.90
2017-09-24T11:21:40.802Z,12.40
2017-09-24T11:24:08.397Z,12.10
2017-09-24T11:26:36.746Z,11.20
2017-09-24T11:29:04.350Z,11.40
2017-09-24T11:31:31.965Z,10.00
2017-09-24T11:33:59.608Z,10.00
2017-09-24T11:36:27.978Z,9.77
2017-09-24T11:38:55.807Z,10.60
2017-09-24T11:41:24.134Z,9.20
2017-09-24T11:43:51.699Z,9.97
2017-09-24T11:46:19.301Z,10.13
2017-09-24T11:48:47.688Z,9.43
2017-09-24T11:51:15.274Z,9.10
2017-09-24T11:53:42.850Z,9.20
2017-09-24T11:56:10.461Z,8.47
2017-09-24T11:58:38.806Z,9.10
2017-09-24T12:01:06.658Z,7.80
2017-09-24T12:03:34.243Z,12.00
2017-09-24T12:06:02.597Z,9.90
2017-09-24T12:08:30.203Z,12.87
2017-09-24T12:10:57.788Z,11.53
2017-09-24T12:13:25.401Z,10.40
2017-09-24T12:15:53.757Z,10.47
2017-09-24T12:18:21.391Z,9.77
2017-09-24T12:20:48.980Z,10.83
2017-09-24T12:23:17.178Z,11.00
2017-09-24T12:25:45.035Z,11.90
2017-09-24T12:28:12.608Z,10.07
2017-09-24T12:30:40.950Z,10.27
2017-09-24T12:33:08.511Z,9.77
2017-09-24T12:35:36.127Z,9.10
2017-09-24T12:38:03.711Z,8.80
2017-09-24T12:40:31.359Z,10.57
2017-09-24T12:42:58.937Z,9.97
2017-09-24T12:45:27.319Z,8.77
2017-09-24T12:47:54.898Z,9.53
2017-09-24T12:50:22.845Z,9.23
2017-09-24T12:52:50.457Z,10.13
2017-09-24T12:55:18.064Z,9.43
2017-09-24T12:57:45.654Z,7.90
2017-09-24T13:00:14.005Z,7.30
2017-09-24T13:02:41.607Z,10.10
2017-09-24T13:05:09.949Z,7.70
2017-09-24T13:07:37.681Z,8.50
2017-09-24T13:10:05.268Z,7.87
2017-09-24T13:12:32.847Z,7.40
2017-09-24T13:15:01.179Z,8.40
2017-09-24T13:17:29.056Z,7.90
2017-09-24T13:19:56.636Z,6.60
2017-09-24T13:22:24.236Z,7.57
2017-09-24T13:24:51.826Z,8.80
2017-09-24T13:27:19.398Z,8.60
2017-09-24T13:29:46.986Z,10.53
2017-09-24T13:32:14.566Z,9.40
2017-09-24T13:34:42.180Z,10.77
2017-09-24T13:37:09.756Z,10.33
2017-09-24T13:39:37.351Z,11.10
2017-09-24T13:42:04.921Z,10.77
2017-09-24T13:44:32.779Z,9.17
2017-09-24T13:47:00.372Z,9.60
2017-09-24T13:49:27.936Z,9.70
2017-09-24T13:51:55.521Z,8.80
2017-09-24T13:54:23.106Z,9.83
2017-09-24T13:56:50.712Z,9.13
2017-09-24T13:59:18.267Z,8.50
2017-09-24T14:01:45.892Z,8.97
2017-09-24T14:04:13.458Z,11.60
2017-09-24T14:06:41.052Z,10.27
2017-09-24T14:09:08.661Z,7.80
2017-09-24T14:11:37.287Z,9.47
2017-09-24T14:14:05.011Z,8.20
2017-09-24T14:16:32.728Z,8.97
2017-09-24T14:19:00.424Z,10.63
2017-09-24T14:21:28.751Z,8.77
2017-09-24T14:23:57.101Z,8.97
2017-09-24T14:26:24.671Z,9.77
2017-09-24T14:28:52.259Z,9.03
2017-09-24T14:31:19.849Z,10.03
2017-09-24T14:33:48.198Z,9.53
2017-09-24T14:36:15.815Z,8.77
2017-09-24T14:38:43.734Z,10.57
2017-09-24T14:41:11.315Z,9.20
2017-09-24T14:43:39.693Z,8.63
2017-09-24T14:46:08.098Z,10.00
2017-09-24T14:48:35.716Z,7.70
2017-09-24T14:51:03.401Z,9.70
2017-09-24T14:53:31.061Z,8.37
2017-09-24T14:55:59.424Z,8.07
2017-09-24T14:58:27.037Z,8.80
2017-09-24T15:00:55.867Z,11.37
2017-09-24T15:03:23.465Z,8.63
2017-09-24T15:05:51.049Z,9.17
2017-09-24T15:08:18.633Z,8.80
2017-09-24T15:10:46.230Z,10.80
2017-09-24T15:13:13.942Z,10.97
2017-09-24T15:15:41.538Z,8.10
2017-09-24T15:18:10.039Z,9.90
2017-09-24T15:20:37.712Z,9.50
2017-09-24T15:23:05.872Z,10.10
2017-09-24T15:25:33.473Z,9.20
2017-09-24T15:28:01.179Z,9.90
2017-09-24T15:30:29.573Z,11.27
2017-09-24T15:32:57.222Z,11.97
2017-09-24T15:35:25.663Z,11.80
2017-09-24T15:37:53.995Z,10.77
2017-09-24T15:40:21.830Z,10.10
2017-09-24T15:42:50.189Z,10.90
2017-09-24T15:45:18.049Z,11.27
2017-09-24T15:47:45.664Z,12.50
2017-09-24T15:50:13.256Z,12.60
2017-09-24T15:52:40.852Z,10.87
2017-09-24T15:55:09.205Z,9.70
2017-09-24T15:57:36.920Z,8.90
2017-09-24T16:00:04.535Z,8.30
2017-09-24T16:02:32.123Z,8.40
2017-09-24T16:04:59.706Z,11.30
2017-09-24T16:07:27.291Z,9.80
2017-09-24T16:09:54.970Z,8.47
2017-09-24T16:12:22.958Z,8.60
2017-09-24T16:14:51.285Z,9.40
2017-09-24T16:17:18.861Z,10.43
2017-09-24T16:19:46.447Z,8.13
2017-09-24T16:22:14.003Z,8.40
2017-09-24T16:24:41.682Z,7.50
2017-09-24T16:27:10.052Z,7.70
2017-09-24T16:29:38.417Z,8.33
2017-09-24T16:32:05.989Z,7.50
2017-09-24T16:34:34.354Z,7.40
2017-09-24T16:37:02.016Z,7.33
2017-09-24T16:39:29.593Z,8.73
2017-09-24T16:41:57.918Z,9.07
2017-09-24T16:44:25.785Z,10.77
2017-09-24T16:46:53.665Z,10.37
2017-09-24T16:49:21.260Z,12.93
2017-09-24T16:51:49.638Z,15.67
2017-09-24T16:54:17.998Z,18.23
2017-09-24T16:56:45.569Z,17.63
2017-09-24T16:59:13.947Z,16.47
2017-09-24T17:01:42.334Z,16.53
2017-09-24T17:04:10.726Z,16.80
2017-09-24T17:06:38.318Z,18.40
2017-09-24T17:09:05.922Z,17.37
2017-09-24T17:11:34.345Z,19.17
2017-09-24T17:14:01.977Z,17.93
2017-09-24T17:16:29.991Z,17.23
2017-09-24T17:18:57.598Z,17.53
2017-09-24T17:21:25.930Z,19.87
2017-09-24T17:23:53.551Z,19.07
2017-09-24T17:26:21.162Z,19.10
2017-09-24T17:28:48.767Z,18.53
2017-09-24T17:31:16.377Z,16.37
2017-09-24T17:33:43.976Z,23.42
2017-09-24T17:36:11.550Z,20.58
2017-09-24T17:38:39.439Z,18.35
2017-09-24T17:41:07.025Z,14.00
2017-09-24T17:43:34.610Z,14.55
2017-09-24T17:46:02.980Z,10.35
2017-09-24T17:48:31.341Z,11.75
2017-09-24T17:50:58.946Z,12.10
2017-09-24T17:53:26.523Z,11.25
2017-09-24T17:55:54.124Z,11.30
2017-09-24T17:58:21.713Z,12.20
2017-09-24T18:00:50.379Z,13.07
2017-09-24T18:03:18.730Z,10.18
2017-09-24T18:05:46.314Z,13.05
2017-09-24T18:08:14.699Z,12.32
2017-09-24T18:10:43.065Z,12.80
2017-09-24T18:13:11.505Z,13.07
2017-09-24T18:15:39.136Z,13.75
2017-09-24T18:18:06.849Z,14.45
2017-09-24T18:20:34.490Z,18.00
2017-09-24T18:23:02.147Z,16.33
2017-09-24T18:25:29.740Z,16.73
2017-09-24T18:27:57.389Z,16.85
2017-09-24T18:30:24.990Z,16.20
2017-09-24T18:32:53.658Z,15.65
2017-09-24T18:35:22.035Z,18.17
2017-09-24T18:37:50.442Z,17.25
2017-09-24T18:40:18.063Z,18.20
2017-09-24T18:42:45.999Z,19.15
2017-09-24T18:45:13.725Z,17.83
2017-09-24T18:47:41.388Z,18.35
2017-09-24T18:50:09.037Z,18.45
2017-09-24T18:52:37.483Z,18.92
2017-09-24T18:55:05.476Z,19.60
2017-09-24T18:57:33.092Z,19.75
2017-09-24T19:00:00.683Z,18.92
2017-09-24T19:02:28.360Z,19.83
2017-09-24T19:04:55.941Z,20.92
2017-09-24T19:07:23.611Z,21.23
2017-09-24T19:09:51.301Z,19.05
2017-09-24T19:12:18.995Z,22.15
2017-09-24T19:14:46.630Z,20.85
2017-09-24T19:17:14.400Z,18.85
2017-09-24T19:19:42.056Z,18.92
2017-09-24T19:22:09.690Z,21.87
2017-09-24T19:24:37.315Z,21.00
2017-09-24T19:27:05.965Z,21.58
2017-09-24T19:29:33.598Z,19.60
2017-09-24T19:32:01.984Z,20.05
2017-09-24T19:34:29.597Z,21.75
2017-09-24T19:36:58.003Z,21.00
2017-09-24T19:39:25.671Z,20.90
2017-09-24T19:41:53.262Z,18.73
2017-09-24T19:44:20.894Z,18.67
2017-09-24T19:46:48.498Z,19.27
2017-09-24T19:49:16.492Z,16.73
2017-09-24T19:51:44.121Z,19.73
2017-09-24T19:54:11.720Z,17.87
2017-09-24T19:56:39.373Z,18.95
2017-09-24T19:59:07.728Z,18.87
2017-09-24T20:01:35.371Z,19.60
2017-09-24T20:04:02.958Z,19.30
2017-09-24T20:06:30.753Z,18.67
2017-09-24T20:08:58.355Z,21.33
2017-09-24T20:11:26.233Z,20.45
2017-09-24T20:13:53.845Z,19.25
2017-09-24T20:16:21.663Z,21.37
2017-09-24T20:18:49.260Z,24.95
2017-09-24T20:21:17.062Z,18.75
2017-09-24T20:23:45.313Z,18.58
2017-09-24T20:26:12.897Z,19.30
2017-09-24T20:28:40.962Z,21.50
2017-09-24T20:31:08.544Z,22.33
2017-09-24T20:33:36.568Z,22.15
2017-09-24T20:36:04.155Z,18.98
2017-09-24T20:38:31.767Z,18.10
2017-09-24T20:40:59.476Z,18.27
2017-09-24T20:43:27.082Z,18.77
2017-09-24T20:45:55.491Z,18.98
2017-09-24T20:48:23.080Z,29.00
2017-09-24T20:50:50.700Z,24.90
2017-09-24T20:53:18.331Z,17.60
2017-09-24T20:55:46.714Z,17.80
2017-09-24T20:58:15.082Z,20.25
2017-09-24T21:00:42.696Z,23.23
2017-09-24T21:03:10.366Z,21.77
2017-09-24T21:05:39.172Z,25.05
2017-09-24T21:08:06.751Z,21.65
2017-09-24T21:10:34.324Z,29.60
2017-09-24T21:13:01.930Z,26.35
2017-09-24T21:15:29.542Z,23.70
2017-09-24T21:17:58.189Z,26.15
2017-09-24T21:20:26.615Z,26.27
2017-09-24T21:22:55.125Z,25.15
2017-09-24T21:25:22.787Z,22.00
2017-09-24T21:27:50.349Z,23.80
2017-09-24T21:30:17.936Z,22.75
2017-09-24T21:32:45.541Z,23.38
2017-09-24T21:35:13.177Z,21.55
2017-09-24T21:37:41.549Z,20.50
2017-09-24T21:40:09.478Z,21.85
2017-09-24T21:42:37.114Z,26.52
2017-09-24T21:45:04.693Z,21.05
2017-09-24T21:47:32.386Z,22.35
2017-09-24T21:50:00.029Z,20.73
2017-09-24T21:52:27.650Z,21.75
2017-09-24T21:54:55.249Z,19.35
2017-09-24T21:57:22.838Z,19.62
2017-09-24T21:59:50.419Z,21.62
2017-09-24T22:02:18.792Z,19.92
2017-09-24T22:04:47.127Z,22.00
2017-09-24T22:07:14.981Z,19.80
2017-09-24T22:09:42.630Z,19.12
2017-09-24T22:12:10.204Z,20.30
2017-09-24T22:14:37.796Z,20.65
2017-09-24T22:17:06.149Z,20.40
2017-09-24T22:19:33.745Z,20.52
2017-09-24T22:22:02.294Z,23.17
2017-09-24T22:24:29.881Z,19.37
2017-09-24T22:26:57.459Z,19.12
2017-09-24T22:29:25.056Z,18.10
2017-09-24T22:31:52.627Z,18.55
2017-09-24T22:34:20.530Z,17.62
2017-09-24T22:36:48.136Z,20.17
2017-09-24T22:39:15.714Z,17.73
2017-09-24T22:41:43.285Z,18.02
2017-09-24T22:44:10.850Z,18.30
2017-09-24T22:46:38.432Z,17.75
2017-09-24T22:49:06.007Z,17.20
2017-09-24T22:51:33.577Z,18.67
2017-09-24T22:54:01.286Z,19.55
2017-09-24T22:56:29.910Z,17.10
2017-09-24T22:58:57.574Z,17.00
2017-09-24T23:01:25.146Z,17.90
2017-09-24T23:03:52.749Z,17.23
2017-09-24T23:06:20.330Z,16.65
2017-09-24T23:08:48.682Z,18.10
2017-09-24T23:11:16.258Z,17.52
2017-09-24T23:13:44.607Z,17.02
2017-09-24T23:16:12.192Z,17.60
2017-09-24T23:18:40.650Z,17.02
2017-09-24T23:21:09.021Z,16.37
2017-09-24T23:23:36.663Z,17.12
2017-09-24T23:26:04.250Z,18.15
2017-09-24T23:28:31.844Z,18.52
2017-09-24T23:31:00.193Z,17.75
2017-09-24T23:33:27.782Z,16.85
2017-09-24T23:35:56.199Z,15.65
2017-09-24T23:38:23.775Z,15.95
2017-09-24T23:40:52.450Z,16.30
2017-09-24T23:43:20.027Z,18.30
2017-09-24T23:45:47.602Z,15.90
2017-09-24T23:48:15.183Z,16.62
2017-09-24T23:50:43.508Z,16.45
2017-09-24T23:53:11.076Z,16.25
2017-09-24T23:55:38.649Z,17.90
2017-09-24T23:58:06.234Z,21.30
